Time;durP1;ratioP1;P1;durP2;ratioP2;P2;SDS_P1;SDS_P2;PMS_P1;PMS_P2;Temp;Humidity;BMP_temperature;BMP_pressure;BME280_temperature;BME280_humidity;BME280_pressure;Samples;Min_cycle;Max_cycle;Signal;HPM_P1;HPM_P2
2022/04/11 00:01:22;;;;;;;;;;;;;;;6.62;66.98;98641.22;4937347;29;19969;-60
2022/04/11 00:03:47;;;;;;;;;;;;;;;6.65;68.19;98635.50;4937194;29;20020;-60
2022/04/11 00:06:13;;;;;;;;;;;;;;;6.66;69.00;98637.09;4937112;29;19931;-60
2022/04/11 00:08:38;;;;;;;;;;;;;;;6.59;68.82;98641.69;4955141;29;20400;-63
2022/04/11 00:11:04;;;;;;;;;;;;;;;6.51;68.98;98637.56;4956184;28;19930;-62
2022/04/11 00:13:30;;;;;;;;;;;;;;;6.40;69.39;98635.72;4956247;29;19930;-60
2022/04/11 00:15:55;;;;;;;;;;;;;;;6.37;69.10;98636.97;4956096;29;19930;-61
2022/04/11 00:18:20;;;;;;;;;;;;;;;6.34;68.65;98640.06;4955091;29;19926;-61
2022/04/11 00:20:47;;;;;;;;;;;;;;;6.31;69.25;98637.88;4955316;29;19958;-60
2022/04/11 00:23:13;;;;;;;;;;;;;;;6.32;69.29;98633.41;4954996;29;19973;-60
2022/04/11 00:25:39;;;;;;;;;;;;;;;6.34;68.99;98632.16;4951332;29;19927;-60
2022/04/11 00:28:05;;;;;;;;;;;;;;;6.34;69.12;98636.63;4935761;29;20381;-62
2022/04/11 00:30:30;;;;;;;;;;;;;;;6.32;67.94;98634.25;4936182;29;19933;-59
2022/04/11 00:32:56;;;;;;;;;;;;;;;6.35;68.24;98625.88;4936686;29;20387;-60
2022/04/11 00:35:21;;;;;;;;;;;;;;;6.37;67.75;98631.69;4936650;29;19974;-59
2022/04/11 00:37:47;;;;;;;;;;;;;;;6.35;67.13;98632.97;4955905;29;19957;-60
2022/04/11 00:40:13;;;;;;;;;;;;;;;6.33;66.65;98621.88;4955822;29;20225;-60
2022/04/11 00:42:38;;;;;;;;;;;;;;;6.33;66.63;98627.94;4938307;29;20420;-60
2022/04/11 00:45:05;;;;;;;;;;;;;;;6.30;66.67;98631.03;4922547;29;19926;-62
2022/04/11 00:47:30;;;;;;;;;;;;;;;6.30;66.90;98628.41;4954449;29;19938;-59
2022/04/11 00:49:58;;;;;;;;;;;;;;;6.28;66.12;98627.00;4955398;29;19930;-59
2022/04/11 00:52:24;;;;;;;;;;;;;;;6.27;67.02;98628.84;4938462;29;20297;-60
2022/04/11 00:54:49;;;;;;;;;;;;;;;6.17;66.22;98631.22;4954433;29;20042;-62
2022/04/11 00:57:16;;;;;;;;;;;;;;;6.10;66.23;98625.28;4955229;29;20024;-60
2022/04/11 00:59:42;;;;;;;;;;;;;;;6.04;66.87;98626.19;4954315;29;19969;-60
2022/04/11 01:02:08;;;;;;;;;;;;;;;5.99;67.03;98624.22;4937968;29;20388;-59
2022/04/11 01:04:36;;;;;;;;;;;;;;;5.97;67.63;98630.72;4925550;29;20423;-61
2022/04/11 01:07:01;;;;;;;;;;;;;;;5.96;67.17;98637.81;4935878;29;19931;-61
2022/04/11 01:09:27;;;;;;;;;;;;;;;5.90;66.65;98639.50;4934710;29;19934;-61
2022/04/11 01:11:53;;;;;;;;;;;;;;;5.88;66.80;98632.84;4934809;29;19931;-59
2022/04/11 01:14:19;;;;;;;;;;;;;;;5.88;67.54;98631.06;4942317;29;20029;-62
2022/04/11 01:16:51;;;;;;;;;;;;;;;5.84;67.53;98626.44;4955263;29;20415;-61
2022/04/11 01:19:17;;;;;;;;;;;;;;;5.81;67.41;98629.53;4938201;29;19932;-60
2022/04/11 01:21:43;;;;;;;;;;;;;;;5.79;67.71;98621.84;4937661;29;19934;-60
2022/04/11 01:24:08;;;;;;;;;;;;;;;5.69;67.68;98625.03;4936820;29;20352;-61
2022/04/11 01:26:34;;;;;;;;;;;;;;;5.73;67.29;98617.50;4935944;29;20021;-60
2022/04/11 01:29:00;;;;;;;;;;;;;;;5.69;67.92;98616.34;4918672;29;19942;-59
2022/04/11 01:31:25;;;;;;;;;;;;;;;5.72;66.97;98615.09;4918648;29;20316;-60
2022/04/11 01:33:51;;;;;;;;;;;;;;;5.73;66.60;98614.06;4918561;29;20452;-60
2022/04/11 01:36:16;;;;;;;;;;;;;;;5.77;65.41;98612.59;4925220;29;20049;-60
2022/04/11 01:38:42;;;;;;;;;;;;;;;5.80;66.03;98612.97;4937816;29;19965;-60
2022/04/11 01:41:10;;;;;;;;;;;;;;;5.79;65.46;98613.97;4953326;29;19934;-61
2022/04/11 01:43:35;;;;;;;;;;;;;;;5.79;65.19;98615.78;4937162;29;19934;-60
2022/04/11 01:46:01;;;;;;;;;;;;;;;5.83;64.77;98617.75;4953477;29;20526;-60
2022/04/11 01:48:47;;;;;;;;;;;;;;;5.85;64.59;98615.72;4954586;29;19933;-61
2022/04/11 01:51:13;;;;;;;;;;;;;;;5.90;63.53;98623.72;4954444;29;20051;-61
2022/04/11 01:53:39;;;;;;;;;;;;;;;5.88;63.19;98625.78;4952690;28;19930;-61
2022/04/11 01:56:05;;;;;;;;;;;;;;;5.91;62.77;98617.44;4953435;29;19930;-62
2022/04/11 01:58:32;;;;;;;;;;;;;;;5.92;62.69;98632.19;4953275;29;19926;-60
2022/04/11 02:00:58;;;;;;;;;;;;;;;5.91;63.14;98627.97;4937037;29;20320;-60
2022/04/11 02:03:24;;;;;;;;;;;;;;;5.89;62.58;98631.84;4949624;29;20308;-60
2022/04/11 02:05:50;;;;;;;;;;;;;;;5.88;61.74;98640.75;4935039;29;19938;-60
2022/04/11 02:08:17;;;;;;;;;;;;;;;5.85;62.81;98628.03;4933855;29;19927;-62
2022/04/11 02:10:43;;;;;;;;;;;;;;;5.83;62.58;98632.75;4917808;29;20381;-60
2022/04/11 02:13:10;;;;;;;;;;;;;;;5.84;63.50;98632.50;4934242;29;20377;-60
2022/04/11 02:15:37;;;;;;;;;;;;;;;5.89;63.88;98637.09;4952929;29;19926;-60
2022/04/11 02:18:03;;;;;;;;;;;;;;;5.87;63.37;98639.16;4954075;29;19934;-61
2022/04/11 02:20:29;;;;;;;;;;;;;;;5.90;64.40;98636.06;4952958;29;20369;-60
2022/04/11 02:22:56;;;;;;;;;;;;;;;5.90;64.54;98639.50;4927619;29;19950;-60
2022/04/11 02:25:22;;;;;;;;;;;;;;;5.93;63.99;98643.53;4933785;29;20017;-61
2022/04/11 02:27:48;;;;;;;;;;;;;;;5.94;64.12;98639.06;4933621;29;19926;-61
2022/04/11 02:30:16;;;;;;;;;;;;;;;5.94;64.58;98631.97;4933622;29;20289;-60
2022/04/11 02:32:41;;;;;;;;;;;;;;;5.93;64.50;98640.91;4907998;29;19930;-60
2022/04/11 02:35:07;;;;;;;;;;;;;;;5.85;65.81;98635.94;4954059;29;19927;-59
2022/04/11 02:37:33;;;;;;;;;;;;;;;5.79;65.26;98635.00;4953511;29;20388;-61
2022/04/11 02:39:59;;;;;;;;;;;;;;;5.68;66.62;98630.53;4952788;29;19980;-63
2022/04/11 02:42:26;;;;;;;;;;;;;;;5.66;66.29;98637.84;4936881;29;19970;-61
2022/04/11 02:44:58;;;;;;;;;;;;;;;5.60;67.43;98634.25;4936599;29;19958;-61
2022/04/11 02:47:23;;;;;;;;;;;;;;;5.55;67.64;98636.75;4936703;29;19980;-61
2022/04/11 02:49:49;;;;;;;;;;;;;;;5.51;67.84;98632.97;4952724;29;19930;-60
2022/04/11 02:52:28;;;;;;;;;;;;;;;5.54;68.02;98634.38;4952023;29;20024;-61
2022/04/11 02:54:54;;;;;;;;;;;;;;;5.50;68.39;98636.66;4952437;29;19926;-62
2022/04/11 02:57:19;;;;;;;;;;;;;;;5.44;67.76;98640.97;4952446;29;19942;-62
2022/04/11 02:59:45;;;;;;;;;;;;;;;5.40;67.99;98637.16;4950782;29;19961;-63
2022/04/11 03:02:10;;;;;;;;;;;;;;;5.39;67.90;98632.94;4933288;29;19938;-60
2022/04/11 03:04:37;;;;;;;;;;;;;;;5.34;68.60;98629.34;4917500;29;19961;-62
2022/04/11 03:07:17;;;;;;;;;;;;;;;5.34;68.40;98629.34;4936446;29;19969;-61
2022/04/11 03:09:43;;;;;;;;;;;;;;;5.29;68.67;98630.00;4936674;29;19931;-59
2022/04/11 03:12:09;;;;;;;;;;;;;;;5.20;67.77;98634.75;4955587;29;20392;-60
2022/04/11 03:14:35;;;;;;;;;;;;;;;5.16;68.15;98636.25;4957514;29;19926;-62
2022/04/11 03:17:01;;;;;;;;;;;;;;;5.07;68.53;98637.56;4956056;28;19930;-60
2022/04/11 03:19:30;;;;;;;;;;;;;;;5.04;68.85;98630.13;4955555;29;19931;-60
2022/04/11 03:21:56;;;;;;;;;;;;;;;5.01;68.44;98612.97;4956036;29;19937;-59
2022/04/11 03:24:21;;;;;;;;;;;;;;;5.01;68.42;98623.47;4957083;29;19933;-59
2022/04/11 03:26:47;;;;;;;;;;;;;;;5.03;68.75;98620.66;4955913;29;19948;-61
2022/04/11 03:29:22;;;;;;;;;;;;;;;5.04;68.37;98619.63;4949653;29;20432;-61
2022/04/11 03:31:48;;;;;;;;;;;;;;;5.08;68.56;98615.50;4936553;29;19946;-59
2022/04/11 03:34:15;;;;;;;;;;;;;;;5.10;68.47;98623.19;4936556;29;19926;-61
2022/04/11 03:36:41;;;;;;;;;;;;;;;5.09;68.91;98624.19;4937814;29;20452;-60
2022/04/11 03:39:07;;;;;;;;;;;;;;;5.09;68.15;98625.03;4949533;29;20336;-60
2022/04/11 03:41:38;;;;;;;;;;;;;;;5.14;68.83;98625.13;4937470;29;19931;-61
2022/04/11 03:44:11;;;;;;;;;;;;;;;5.16;68.77;98628.34;4955482;29;19952;-62
2022/04/11 03:46:38;;;;;;;;;;;;;;;5.22;68.45;98627.47;4955483;29;19936;-61
2022/04/11 03:49:06;;;;;;;;;;;;;;;5.21;68.03;98619.81;4953524;29;19948;-61
2022/04/11 03:51:32;;;;;;;;;;;;;;;5.19;68.54;98619.25;4939450;29;19934;-61
2022/04/11 03:53:57;;;;;;;;;;;;;;;5.15;68.91;98618.88;4953852;29;20185;-62
2022/04/11 03:56:23;;;;;;;;;;;;;;;5.05;68.48;98623.84;4955175;29;20345;-61
2022/04/11 03:58:49;;;;;;;;;;;;;;;4.97;69.33;98642.50;4956692;29;19989;-61
2022/04/11 04:01:14;;;;;;;;;;;;;;;4.98;69.60;98633.63;4954700;29;19938;-62
2022/04/11 04:03:40;;;;;;;;;;;;;;;4.95;70.00;98634.06;4955298;29;19931;-62
2022/04/11 04:06:09;;;;;;;;;;;;;;;4.90;69.73;98634.72;4955018;29;19986;-60
2022/04/11 04:08:39;;;;;;;;;;;;;;;4.74;70.94;98635.31;4954793;29;19926;-62
2022/04/11 04:11:14;;;;;;;;;;;;;;;4.70;70.33;98621.78;4939107;29;20029;-61
2022/04/11 04:13:52;;;;;;;;;;;;;;;4.72;71.25;98617.13;4955292;29;19933;-62
2022/04/11 04:16:18;;;;;;;;;;;;;;;4.68;71.35;98610.72;4954079;28;19930;-61
2022/04/11 04:18:51;;;;;;;;;;;;;;;4.68;71.46;98609.94;4955162;29;20300;-60
2022/04/11 04:21:18;;;;;;;;;;;;;;;4.69;71.26;98601.03;4954811;29;19930;-61
2022/04/11 04:23:45;;;;;;;;;;;;;;;4.67;70.85;98603.06;4938782;29;19926;-59
2022/04/11 04:26:11;;;;;;;;;;;;;;;4.68;70.68;98602.06;4938219;29;19934;-59
2022/04/11 04:28:36;;;;;;;;;;;;;;;4.63;71.73;98591.41;4938570;29;19926;-62
2022/04/11 04:31:02;;;;;;;;;;;;;;;4.59;71.66;98588.41;4938538;29;19934;-61
2022/04/11 04:33:31;;;;;;;;;;;;;;;4.65;70.94;98584.13;4938285;29;20392;-60
2022/04/11 04:35:56;;;;;;;;;;;;;;;4.67;71.02;98572.34;4922653;29;19937;-61
2022/04/11 04:38:22;;;;;;;;;;;;;;;4.71;71.10;98560.41;4954551;29;20141;-62
2022/04/11 04:40:51;;;;;;;;;;;;;;;4.73;70.61;98553.09;4954601;29;20037;-61
2022/04/11 04:43:21;;;;;;;;;;;;;;;4.78;70.38;98531.44;4954201;29;19937;-60
2022/04/11 04:45:47;;;;;;;;;;;;;;;4.77;70.33;98521.97;4952374;29;19937;-60
2022/04/11 04:48:28;;;;;;;;;;;;;;;4.81;70.39;98543.34;4941602;29;20024;-61
2022/04/11 04:50:54;;;;;;;;;;;;;;;4.87;69.85;98553.75;4955339;29;20021;-61
2022/04/11 04:53:20;;;;;;;;;;;;;;;4.90;69.81;98561.19;4953915;29;20412;-61
2022/04/11 04:55:49;;;;;;;;;;;;;;;4.94;69.84;98570.25;4949724;29;19930;-62
2022/04/11 04:58:15;;;;;;;;;;;;;;;4.91;70.12;98573.31;4950143;29;20022;-61
2022/04/11 05:00:41;;;;;;;;;;;;;;;4.91;69.42;98562.81;4933305;29;19933;-60
2022/04/11 05:03:08;;;;;;;;;;;;;;;4.91;69.57;98544.41;4942014;29;19927;-60
2022/04/11 05:05:35;;;;;;;;;;;;;;;4.97;69.55;98532.19;4939993;29;20281;-63
2022/04/11 05:08:01;;;;;;;;;;;;;;;4.97;69.44;98511.19;4936030;29;19927;-63
2022/04/11 05:10:30;;;;;;;;;;;;;;;4.98;68.90;98518.06;4931403;29;19927;-62
2022/04/11 05:12:56;;;;;;;;;;;;;;;4.98;69.18;98512.81;4916339;29;19974;-63
2022/04/11 05:15:23;;;;;;;;;;;;;;;4.87;69.66;98495.19;4931533;29;19987;-59
2022/04/11 05:17:54;;;;;;;;;;;;;;;4.94;69.37;98491.44;4915040;29;19927;-59
2022/04/11 05:20:21;;;;;;;;;;;;;;;4.98;69.01;98481.28;4937078;29;20412;-61
2022/04/11 05:22:47;;;;;;;;;;;;;;;5.01;69.79;98476.41;4948159;29;19933;-62
2022/04/11 05:25:12;;;;;;;;;;;;;;;5.01;68.94;98467.72;4934230;29;20297;-60
2022/04/11 05:27:38;;;;;;;;;;;;;;;5.01;68.58;98447.50;4934201;29;19931;-60
2022/04/11 05:30:05;;;;;;;;;;;;;;;5.03;68.90;98443.84;4933515;29;20062;-61
2022/04/11 05:32:35;;;;;;;;;;;;;;;4.98;68.77;98447.94;4899509;29;20342;-60
2022/04/11 05:35:02;;;;;;;;;;;;;;;5.00;69.38;98460.88;4916874;29;19935;-60
2022/04/11 05:37:29;;;;;;;;;;;;;;;4.90;69.60;98465.84;4931591;29;20593;-62
2022/04/11 05:39:54;;;;;;;;;;;;;;;4.93;69.26;98475.91;4931775;29;20018;-60
2022/04/11 05:42:23;;;;;;;;;;;;;;;4.92;68.72;98475.09;4914747;29;20391;-61
2022/04/11 05:44:50;;;;;;;;;;;;;;;4.90;69.21;98468.47;4929184;29;19938;-59
2022/04/11 05:47:17;;;;;;;;;;;;;;;4.91;69.20;98470.06;4925027;29;19931;-60
2022/04/11 05:49:49;;;;;;;;;;;;;;;4.86;69.78;98462.88;4929699;29;19927;-60
2022/04/11 05:52:18;;;;;;;;;;;;;;;4.93;69.09;98465.41;4930005;29;19931;-60
2022/04/11 05:54:45;;;;;;;;;;;;;;;4.97;68.99;98469.16;4929009;29;19926;-58
2022/04/11 05:57:11;;;;;;;;;;;;;;;4.99;68.76;98464.50;4937364;29;19985;-60
2022/04/11 05:59:37;;;;;;;;;;;;;;;4.94;69.16;98459.94;4934324;29;20352;-62
2022/04/11 06:02:03;;;;;;;;;;;;;;;4.94;68.93;98445.97;4932507;29;19931;-60
2022/04/11 06:04:28;;;;;;;;;;;;;;;4.99;69.34;98422.47;4948174;29;19973;-62
2022/04/11 06:06:54;;;;;;;;;;;;;;;5.03;68.67;98423.66;4948398;29;19931;-60
2022/04/11 06:09:20;;;;;;;;;;;;;;;4.99;69.50;98414.59;4948259;29;19930;-61
2022/04/11 06:11:45;;;;;;;;;;;;;;;4.94;69.30;98425.78;4947440;29;19931;-60
2022/04/11 06:14:13;;;;;;;;;;;;;;;4.86;70.25;98420.06;4949432;29;19949;-59
2022/04/11 06:16:38;;;;;;;;;;;;;;;4.82;70.44;98418.88;4931728;29;20373;-59
2022/04/11 06:19:04;;;;;;;;;;;;;;;4.89;69.75;98382.84;4947130;29;19974;-61
2022/04/11 06:21:30;;;;;;;;;;;;;;;4.71;71.16;98360.88;4948535;29;19939;-59
2022/04/11 06:23:56;;;;;;;;;;;;;;;4.66;71.92;98360.75;4947441;29;19926;-60
2022/04/11 06:26:25;;;;;;;;;;;;;;;4.69;72.93;98356.88;4932890;29;19938;-59
2022/04/11 06:28:50;;;;;;;;;;;;;;;4.69;72.14;98377.88;4947601;29;19927;-60
2022/04/11 06:31:16;;;;;;;;;;;;;;;4.65;72.46;98398.53;4948269;29;19938;-58
2022/04/11 06:33:47;;;;;;;;;;;;;;;4.69;73.74;98435.63;4947963;29;19927;-58
2022/04/11 06:36:13;;;;;;;;;;;;;;;4.80;76.17;98490.03;4927587;29;19937;-58
2022/04/11 06:38:39;;;;;;;;;;;;;;;4.89;74.27;98543.03;4932774;29;19935;-60
2022/04/11 06:41:05;;;;;;;;;;;;;;;4.93;74.50;98581.75;4947062;29;20309;-59
2022/04/11 06:43:31;;;;;;;;;;;;;;;4.96;75.22;98612.03;4933181;29;19927;-59
2022/04/11 06:46:06;;;;;;;;;;;;;;;4.88;78.38;98630.69;4916873;29;20010;-58
2022/04/11 06:48:33;;;;;;;;;;;;;;;4.82;80.41;98635.00;4945528;29;20014;-59
2022/04/11 06:50:59;;;;;;;;;;;;;;;4.85;82.46;98646.88;4940658;29;19930;-58
2022/04/11 06:53:25;;;;;;;;;;;;;;;4.89;83.51;98651.50;4928994;29;19973;-58
2022/04/11 06:55:50;;;;;;;;;;;;;;;4.82;81.50;98632.38;4930027;29;19930;-58
2022/04/11 06:58:16;;;;;;;;;;;;;;;4.62;78.85;98644.91;4942896;29;20421;-57
2022/04/11 07:00:42;;;;;;;;;;;;;;;4.45;79.86;98642.03;4929837;29;19927;-58
2022/04/11 07:03:08;;;;;;;;;;;;;;;4.29;79.58;98646.81;4933753;29;19934;-57
2022/04/11 07:05:34;;;;;;;;;;;;;;;4.14;81.41;98640.28;4947645;29;19926;-57
2022/04/11 07:08:00;;;;;;;;;;;;;;;4.04;82.03;98632.88;4933165;29;20017;-60
2022/04/11 07:10:25;;;;;;;;;;;;;;;3.86;81.82;98610.81;4931898;29;20087;-59
2022/04/11 07:12:51;;;;;;;;;;;;;;;3.75;83.00;98594.97;4931436;29;19926;-60
2022/04/11 07:15:16;;;;;;;;;;;;;;;3.67;82.49;98600.47;4930360;29;19927;-59
2022/04/11 07:17:42;;;;;;;;;;;;;;;3.55;82.65;98593.28;4932146;29;19937;-57
2022/04/11 07:20:08;;;;;;;;;;;;;;;3.39;82.03;98588.56;4929600;29;19934;-58
2022/04/11 07:22:34;;;;;;;;;;;;;;;3.37;82.56;98586.13;4930469;29;20312;-59
2022/04/11 07:25:00;;;;;;;;;;;;;;;3.27;81.85;98571.91;4935491;29;19934;-57
2022/04/11 07:27:26;;;;;;;;;;;;;;;3.18;81.49;98564.28;4913300;29;19967;-58
2022/04/11 07:29:51;;;;;;;;;;;;;;;3.03;80.75;98565.53;4911631;29;19966;-59
2022/04/11 07:32:17;;;;;;;;;;;;;;;2.93;81.04;98566.78;4914368;29;20397;-58
2022/04/11 07:34:42;;;;;;;;;;;;;;;2.93;81.20;98558.94;4913560;29;19930;-58
2022/04/11 07:37:08;;;;;;;;;;;;;;;2.90;82.63;98537.63;4914198;29;19985;-59
2022/04/11 07:39:33;;;;;;;;;;;;;;;2.71;83.36;98521.00;4932719;29;19935;-59
2022/04/11 07:42:00;;;;;;;;;;;;;;;2.66;84.24;98521.63;4933392;29;19930;-58
2022/04/11 07:44:25;;;;;;;;;;;;;;;2.68;83.24;98521.41;4931781;29;19927;-60
2022/04/11 07:46:51;;;;;;;;;;;;;;;2.63;83.04;98495.88;4923254;29;19931;-59
2022/04/11 07:49:16;;;;;;;;;;;;;;;2.61;83.44;98484.78;4919345;29;19927;-58
2022/04/11 07:51:42;;;;;;;;;;;;;;;2.62;82.99;98464.69;4936057;29;20308;-60
2022/04/11 07:54:07;;;;;;;;;;;;;;;2.56;83.38;98461.09;4931330;29;20313;-58
2022/04/11 07:56:33;;;;;;;;;;;;;;;2.60;83.42;98451.00;4909764;29;20077;-58
2022/04/11 07:58:58;;;;;;;;;;;;;;;2.69;83.07;98449.75;4935303;29;19974;-59
2022/04/11 08:01:24;;;;;;;;;;;;;;;2.66;82.36;98450.16;4933674;29;19931;-61
2022/04/11 08:03:49;;;;;;;;;;;;;;;2.68;82.96;98438.47;4936335;29;20475;-63
2022/04/11 08:06:15;;;;;;;;;;;;;;;2.72;82.41;98437.03;4936542;29;19938;-59
2022/04/11 08:08:47;;;;;;;;;;;;;;;2.72;81.56;98451.94;4945423;29;19977;-56
2022/04/11 08:11:15;;;;;;;;;;;;;;;2.79;82.23;98450.09;4921949;29;19930;-60
2022/04/11 08:13:40;;;;;;;;;;;;;;;2.88;81.78;98461.94;4955520;29;20241;-60
2022/04/11 08:16:06;;;;;;;;;;;;;;;2.78;81.49;98443.25;4948893;29;19930;-60
2022/04/11 08:18:31;;;;;;;;;;;;;;;2.71;81.86;98459.00;4949278;29;20460;-62
2022/04/11 08:20:57;;;;;;;;;;;;;;;2.73;81.72;98416.91;4936882;29;19966;-60
2022/04/11 08:23:23;;;;;;;;;;;;;;;2.85;80.95;98430.13;4935547;29;20313;-60
2022/04/11 08:25:49;;;;;;;;;;;;;;;2.85;81.09;98424.88;4918838;29;19974;-59
2022/04/11 08:28:14;;;;;;;;;;;;;;;2.93;81.02;98422.03;4919843;29;19933;-60
2022/04/11 08:30:40;;;;;;;;;;;;;;;2.93;80.34;98422.03;4934475;29;19926;-59
2022/04/11 08:33:06;;;;;;;;;;;;;;;2.81;80.52;98432.38;4919305;29;20025;-60
2022/04/11 08:35:31;;;;;;;;;;;;;;;2.75;80.83;98414.09;4944951;29;19926;-58
2022/04/11 08:37:57;;;;;;;;;;;;;;;2.78;81.31;98422.31;4937536;29;19926;-59
2022/04/11 08:40:23;;;;;;;;;;;;;;;2.79;81.09;98416.06;4918692;29;19973;-61
2022/04/11 08:42:48;;;;;;;;;;;;;;;2.81;81.08;98423.72;4942805;29;20014;-60
2022/04/11 08:45:15;;;;;;;;;;;;;;;2.87;80.55;98409.78;4952452;29;19947;-61
2022/04/11 08:47:41;;;;;;;;;;;;;;;2.89;80.69;98418.22;4952751;28;19942;-59
2022/04/11 08:50:06;;;;;;;;;;;;;;;2.90;80.73;98417.22;4954356;29;19926;-62
2022/04/11 08:52:35;;;;;;;;;;;;;;;2.98;80.95;98410.94;4921075;29;19938;-60
2022/04/11 08:55:04;;;;;;;;;;;;;;;2.81;81.24;98405.41;4952451;29;19977;-60
2022/04/11 08:57:29;;;;;;;;;;;;;;;2.89;82.02;98405.16;4948747;29;19977;-59
2022/04/11 08:59:55;;;;;;;;;;;;;;;2.83;81.88;98398.94;4932479;29;19961;-61
2022/04/11 09:02:30;;;;;;;;;;;;;;;2.93;82.27;98412.34;4939871;28;20384;-58
2022/04/11 09:04:56;;;;;;;;;;;;;;;3.01;81.62;98416.53;4953004;29;19926;-61
2022/04/11 09:07:22;;;;;;;;;;;;;;;3.10;81.53;98410.03;4952798;28;19976;-60
2022/04/11 09:09:48;;;;;;;;;;;;;;;3.09;81.25;98410.22;4934897;29;19954;-62
2022/04/11 09:12:14;;;;;;;;;;;;;;;2.99;81.52;98418.56;4951831;28;20423;-59
2022/04/11 09:14:40;;;;;;;;;;;;;;;3.05;81.59;98432.63;4943215;29;19926;-61
2022/04/11 09:17:05;;;;;;;;;;;;;;;3.05;81.52;98438.66;4916835;29;20333;-61
2022/04/11 09:19:31;;;;;;;;;;;;;;;3.13;81.16;98451.50;4916720;29;19933;-63
2022/04/11 09:21:57;;;;;;;;;;;;;;;3.18;81.23;98458.72;4931804;29;19956;-60
2022/04/11 09:24:26;;;;;;;;;;;;;;;3.24;80.62;98465.72;4933157;29;20030;-61
2022/04/11 09:26:54;;;;;;;;;;;;;;;3.21;80.75;98463.53;4934348;29;20006;-60
2022/04/11 09:29:20;;;;;;;;;;;;;;;3.33;80.68;98480.19;4916125;29;20033;-59
2022/04/11 09:31:46;;;;;;;;;;;;;;;3.38;80.11;98463.81;4932310;29;20058;-61
2022/04/11 09:34:18;;;;;;;;;;;;;;;3.42;79.95;98463.19;4934696;29;19934;-60
2022/04/11 09:36:44;;;;;;;;;;;;;;;3.45;80.49;98492.59;4932308;29;19941;-60
2022/04/11 09:39:10;;;;;;;;;;;;;;;3.52;80.26;98481.03;4937882;29;20368;-60
2022/04/11 09:41:38;;;;;;;;;;;;;;;3.41;79.86;98495.63;4938878;29;19941;-59
2022/04/11 09:44:20;;;;;;;;;;;;;;;3.43;81.06;98484.94;4932157;29;19933;-61
2022/04/11 09:46:45;;;;;;;;;;;;;;;3.47;82.28;98486.13;4951005;29;20040;-62
2022/04/11 09:49:11;;;;;;;;;;;;;;;3.47;82.32;98488.75;4951147;29;19927;-62
2022/04/11 09:51:36;;;;;;;;;;;;;;;3.52;81.95;98475.00;4952820;29;19930;-60
2022/04/11 09:54:22;;;;;;;;;;;;;;;3.50;82.50;98477.84;4936942;29;19927;-60
2022/04/11 09:56:47;;;;;;;;;;;;;;;3.50;82.91;98495.34;4936150;29;20338;-61
2022/04/11 09:59:13;;;;;;;;;;;;;;;3.47;81.91;98493.16;4935337;29;19933;-60
2022/04/11 10:01:39;;;;;;;;;;;;;;;3.47;82.00;98480.88;4941629;29;20401;-60
2022/04/11 10:04:05;;;;;;;;;;;;;;;3.44;82.23;98467.38;4937803;29;20304;-60
2022/04/11 10:06:30;;;;;;;;;;;;;;;3.44;82.76;98455.09;4924463;29;20412;-60
2022/04/11 10:08:56;;;;;;;;;;;;;;;3.44;82.09;98457.72;4934672;29;19927;-64
2022/04/11 10:11:21;;;;;;;;;;;;;;;3.36;82.81;98448.31;4930557;29;20029;-60
2022/04/11 10:13:47;;;;;;;;;;;;;;;3.42;82.77;98423.88;4931603;29;19926;-60
2022/04/11 10:16:12;;;;;;;;;;;;;;;3.40;83.16;98435.59;4936801;29;20285;-60
2022/04/11 10:18:38;;;;;;;;;;;;;;;3.42;83.14;98423.06;4948065;29;19949;-62
2022/04/11 10:21:05;;;;;;;;;;;;;;;3.37;81.92;98449.09;4932893;29;20021;-60
2022/04/11 10:23:31;;;;;;;;;;;;;;;3.34;82.79;98428.59;4933896;29;20328;-61
2022/04/11 10:25:58;;;;;;;;;;;;;;;3.30;82.11;98415.13;4935502;29;19930;-58
2022/04/11 10:28:27;;;;;;;;;;;;;;;3.34;82.58;98405.81;4946394;29;19964;-62
2022/04/11 10:31:03;;;;;;;;;;;;;;;3.51;82.78;98400.03;4934524;29;19986;-59
2022/04/11 10:33:41;;;;;;;;;;;;;;;3.55;82.06;98411.66;4933503;29;20385;-60
2022/04/11 10:36:25;;;;;;;;;;;;;;;3.63;81.84;98403.53;4940310;29;19931;-59
2022/04/11 10:39:10;;;;;;;;;;;;;;;3.62;81.94;98428.16;4936196;29;20303;-59
2022/04/11 10:41:54;;;;;;;;;;;;;;;3.55;81.85;98415.09;4939205;29;19965;-59
2022/04/11 10:44:32;;;;;;;;;;;;;;;3.66;81.26;98424.06;4942226;29;19927;-60
2022/04/11 10:47:26;;;;;;;;;;;;;;;3.60;82.06;98424.94;4938567;29;20021;-60
2022/04/11 10:49:55;;;;;;;;;;;;;;;3.60;80.79;98435.41;4914547;29;20384;-61
2022/04/11 10:52:27;;;;;;;;;;;;;;;3.58;81.42;98447.94;4931274;29;19974;-61
2022/04/11 10:54:56;;;;;;;;;;;;;;;3.56;81.08;98450.78;4941155;29;20016;-62
2022/04/11 10:57:36;;;;;;;;;;;;;;;3.60;80.93;98448.53;4933729;29;19957;-60
2022/04/11 11:00:20;;;;;;;;;;;;;;;3.64;80.68;98419.03;4934300;29;19949;-61
2022/04/11 11:05:37;;;;;;;;;;;;;;;3.72;81.88;98436.31;4935980;28;19926;-61
2022/04/11 11:08:07;;;;;;;;;;;;;;;3.82;81.66;98427.94;4940249;29;20435;-60
2022/04/11 11:10:50;;;;;;;;;;;;;;;3.85;81.47;98432.75;4951127;29;19981;-61
2022/04/11 11:13:22;;;;;;;;;;;;;;;3.81;81.32;98426.34;4936238;29;19927;-61
2022/04/11 11:15:48;;;;;;;;;;;;;;;3.94;82.71;98454.25;4937676;28;20453;-61
2022/04/11 11:18:13;;;;;;;;;;;;;;;3.87;80.99;98444.63;4936664;29;20012;-61
2022/04/11 11:20:55;;;;;;;;;;;;;;;3.92;80.54;98444.00;4946426;29;19926;-60
2022/04/11 11:23:31;;;;;;;;;;;;;;;4.00;80.59;98451.56;4928914;29;19970;-60
2022/04/11 11:26:15;;;;;;;;;;;;;;;4.05;79.68;98449.09;4937506;28;19949;-59
2022/04/11 11:28:44;;;;;;;;;;;;;;;4.09;79.62;98466.00;4953447;29;20205;-59
2022/04/11 11:31:09;;;;;;;;;;;;;;;4.02;79.97;98465.25;4951590;29;20025;-62
2022/04/11 11:33:35;;;;;;;;;;;;;;;4.07;80.16;98462.78;4944581;29;20333;-60
2022/04/11 11:36:02;;;;;;;;;;;;;;;4.17;79.99;98469.34;4934013;29;19930;-60
2022/04/11 11:38:31;;;;;;;;;;;;;;;4.18;79.23;98463.09;4933404;29;19927;-62
2022/04/11 11:41:00;;;;;;;;;;;;;;;4.24;79.30;98468.25;4934190;29;20397;-61
2022/04/11 11:43:27;;;;;;;;;;;;;;;4.29;79.84;98468.41;4932520;29;20022;-62
2022/04/11 11:45:56;;;;;;;;;;;;;;;4.30;78.95;98477.88;4933929;29;20447;-60
2022/04/11 11:48:28;;;;;;;;;;;;;;;4.26;78.54;98468.03;4950991;29;19931;-61
2022/04/11 11:50:57;;;;;;;;;;;;;;;4.24;78.77;98463.03;4951394;28;19953;-60
2022/04/11 11:53:23;;;;;;;;;;;;;;;4.36;78.68;98464.91;4945365;28;19933;-59
2022/04/11 11:56:08;;;;;;;;;;;;;;;4.37;78.99;98466.50;4934098;29;19931;-61
2022/04/11 11:58:40;;;;;;;;;;;;;;;4.39;78.55;98464.47;4942015;29;19927;-59
2022/04/11 12:01:06;;;;;;;;;;;;;;;4.48;78.10;98477.06;4912435;29;20404;-60
2022/04/11 12:06:26;;;;;;;;;;;;;;;4.45;78.85;98474.09;4903678;28;20435;-61
2022/04/11 12:08:58;;;;;;;;;;;;;;;4.39;78.60;98478.41;4952205;28;20383;-61
2022/04/11 12:11:24;;;;;;;;;;;;;;;4.50;78.31;98471.59;4950393;28;19931;-62
2022/04/11 12:13:57;;;;;;;;;;;;;;;4.61;77.96;98480.56;4937161;29;20506;-60
2022/04/11 12:16:23;;;;;;;;;;;;;;;4.60;77.64;98485.00;4941649;29;19937;-60
2022/04/11 12:18:49;;;;;;;;;;;;;;;4.60;77.76;98474.50;4953621;29;19926;-60
2022/04/11 12:21:15;;;;;;;;;;;;;;;4.60;77.89;98484.22;4949583;29;19930;-59
2022/04/11 12:23:45;;;;;;;;;;;;;;;4.52;77.92;98482.69;4946599;29;20063;-62
2022/04/11 12:26:11;;;;;;;;;;;;;;;4.57;78.26;98477.56;4952745;29;19945;-60
2022/04/11 12:28:37;;;;;;;;;;;;;;;4.48;78.15;98479.69;4936574;29;19926;-61
2022/04/11 12:31:03;;;;;;;;;;;;;;;4.48;78.03;98484.94;4947744;29;19934;-63
2022/04/11 12:33:33;;;;;;;;;;;;;;;4.56;78.47;98476.00;4932949;29;19926;-65
2022/04/11 12:36:09;;;;;;;;;;;;;;;4.59;78.40;98495.72;4935615;29;20403;-60
2022/04/11 12:38:42;;;;;;;;;;;;;;;4.55;78.55;98490.09;4942842;29;19954;-61
2022/04/11 12:41:27;;;;;;;;;;;;;;;4.52;78.65;98495.81;4951943;29;19930;-59
2022/04/11 12:44:09;;;;;;;;;;;;;;;4.49;78.38;98498.88;4923501;29;19933;-61
2022/04/11 12:46:36;;;;;;;;;;;;;;;4.62;78.84;98511.84;4934821;29;19930;-60
2022/04/11 12:49:01;;;;;;;;;;;;;;;4.59;78.61;98516.72;4918876;29;20300;-59
2022/04/11 12:51:28;;;;;;;;;;;;;;;4.45;78.61;98521.31;4918304;29;19931;-60
2022/04/11 12:54:04;;;;;;;;;;;;;;;4.39;79.25;98523.00;4936079;29;19926;-60
2022/04/11 12:56:43;;;;;;;;;;;;;;;4.44;78.50;98525.78;4934066;29;20351;-60
2022/04/11 12:59:08;;;;;;;;;;;;;;;4.45;78.72;98519.50;4935864;29;19934;-60
2022/04/11 13:01:50;;;;;;;;;;;;;;;4.46;79.77;98521.09;4933449;29;20284;-61
2022/04/11 13:04:16;;;;;;;;;;;;;;;4.59;79.47;98529.84;4933286;29;20327;-60
2022/04/11 13:06:41;;;;;;;;;;;;;;;4.61;79.35;98536.47;4934626;29;19942;-60